sensor_id;sensor_type;location;lat;lon;timestamp;P1;durP1;ratioP1;P2;durP2;ratioP2
38529;SDS011;24301;54.332;48.386;2023-04-25T00:01:25;5.22;;;2.00;;
38529;SDS011;24301;54.332;48.386;2023-04-25T00:03:52;6.95;;;3.15;;
38529;SDS011;24301;54.332;48.386;2023-04-25T00:06:17;5.57;;;2.33;;
38529;SDS011;24301;54.332;48.386;2023-04-25T00:08:44;3.92;;;2.20;;
38529;SDS011;24301;54.332;48.386;2023-04-25T00:11:15;5.97;;;2.10;;
38529;SDS011;24301;54.332;48.386;2023-04-25T00:13:58;4.90;;;2.10;;
38529;SDS011;24301;54.332;48.386;2023-04-25T00:16:27;6.90;;;2.20;;
38529;SDS011;24301;54.332;48.386;2023-04-25T00:22:12;3.22;;;2.25;;
38529;SDS011;24301;54.332;48.386;2023-04-25T00:28:03;5.93;;;2.42;;
38529;SDS011;24301;54.332;48.386;2023-04-25T00:30:39;6.97;;;2.20;;
38529;SDS011;24301;54.332;48.386;2023-04-25T00:33:05;8.10;;;3.17;;
38529;SDS011;24301;54.332;48.386;2023-04-25T00:35:32;4.93;;;1.90;;
38529;SDS011;24301;54.332;48.386;2023-04-25T00:37:58;8.35;;;2.50;;
38529;SDS011;24301;54.332;48.386;2023-04-25T00:40:24;7.50;;;2.60;;
38529;SDS011;24301;54.332;48.386;2023-04-25T00:42:50;7.38;;;2.28;;
38529;SDS011;24301;54.332;48.386;2023-04-25T00:45:18;6.47;;;2.45;;
38529;SDS011;24301;54.332;48.386;2023-04-25T00:47:44;6.10;;;2.33;;
38529;SDS011;24301;54.332;48.386;2023-04-25T00:50:11;4.25;;;2.00;;
38529;SDS011;24301;54.332;48.386;2023-04-25T00:52:38;6.03;;;2.10;;
38529;SDS011;24301;54.332;48.386;2023-04-25T00:55:07;5.20;;;2.63;;
38529;SDS011;24301;54.332;48.386;2023-04-25T00:57:33;4.85;;;2.40;;
38529;SDS011;24301;54.332;48.386;2023-04-25T00:59:59;5.10;;;2.70;;
38529;SDS011;24301;54.332;48.386;2023-04-25T01:02:30;6.00;;;2.05;;
38529;SDS011;24301;54.332;48.386;2023-04-25T01:04:57;6.03;;;1.73;;
38529;SDS011;24301;54.332;48.386;2023-04-25T01:07:23;5.47;;;2.03;;
38529;SDS011;24301;54.332;48.386;2023-04-25T01:09:51;4.65;;;1.70;;
38529;SDS011;24301;54.332;48.386;2023-04-25T01:12:17;7.00;;;2.00;;
38529;SDS011;24301;54.332;48.386;2023-04-25T01:14:44;5.95;;;2.28;;
38529;SDS011;24301;54.332;48.386;2023-04-25T01:21:11;7.80;;;2.22;;
38529;SDS011;24301;54.332;48.386;2023-04-25T01:23:49;7.57;;;1.98;;
38529;SDS011;24301;54.332;48.386;2023-04-25T01:26:15;4.15;;;1.88;;
38529;SDS011;24301;54.332;48.386;2023-04-25T01:28:53;3.45;;;1.95;;
38529;SDS011;24301;54.332;48.386;2023-04-25T01:31:20;2.75;;;1.95;;
38529;SDS011;24301;54.332;48.386;2023-04-25T01:33:49;3.60;;;1.73;;
38529;SDS011;24301;54.332;48.386;2023-04-25T01:36:17;3.80;;;2.05;;
38529;SDS011;24301;54.332;48.386;2023-04-25T01:38:57;6.10;;;2.03;;
38529;SDS011;24301;54.332;48.386;2023-04-25T01:41:39;6.03;;;2.10;;
38529;SDS011;24301;54.332;48.386;2023-04-25T01:44:11;5.97;;;2.10;;
38529;SDS011;24301;54.332;48.386;2023-04-25T01:50:09;3.65;;;1.90;;
38529;SDS011;24301;54.332;48.386;2023-04-25T01:52:58;4.38;;;1.85;;
38529;SDS011;24301;54.332;48.386;2023-04-25T01:55:33;4.75;;;2.30;;
38529;SDS011;24301;54.332;48.386;2023-04-25T01:58:29;8.98;;;2.30;;
38529;SDS011;24301;54.332;48.386;2023-04-25T02:01:42;4.40;;;2.03;;
38529;SDS011;24301;54.332;48.386;2023-04-25T02:04:23;7.22;;;2.33;;
38529;SDS011;24301;54.332;48.386;2023-04-25T02:06:54;6.22;;;2.05;;
38529;SDS011;24301;54.332;48.386;2023-04-25T02:09:24;3.83;;;1.95;;
38529;SDS011;24301;54.332;48.386;2023-04-25T02:18:24;9.73;;;2.40;;
38529;SDS011;24301;54.332;48.386;2023-04-25T02:21:09;4.97;;;2.53;;
38529;SDS011;24301;54.332;48.386;2023-04-25T02:23:35;3.53;;;2.35;;
38529;SDS011;24301;54.332;48.386;2023-04-25T02:29:29;4.13;;;2.25;;
38529;SDS011;24301;54.332;48.386;2023-04-25T02:32:04;5.38;;;2.20;;
38529;SDS011;24301;54.332;48.386;2023-04-25T02:35:20;3.53;;;2.25;;
38529;SDS011;24301;54.332;48.386;2023-04-25T02:37:46;5.15;;;2.70;;
38529;SDS011;24301;54.332;48.386;2023-04-25T02:40:37;4.78;;;2.13;;
38529;SDS011;24301;54.332;48.386;2023-04-25T02:43:14;4.40;;;2.10;;
38529;SDS011;24301;54.332;48.386;2023-04-25T02:45:41;6.07;;;2.55;;
38529;SDS011;24301;54.332;48.386;2023-04-25T02:48:07;10.13;;;2.90;;
38529;SDS011;24301;54.332;48.386;2023-04-25T02:50:33;6.47;;;2.95;;
38529;SDS011;24301;54.332;48.386;2023-04-25T02:53:08;4.82;;;2.15;;
38529;SDS011;24301;54.332;48.386;2023-04-25T02:55:42;6.22;;;2.50;;
38529;SDS011;24301;54.332;48.386;2023-04-25T02:58:08;5.93;;;2.03;;
38529;SDS011;24301;54.332;48.386;2023-04-25T03:00:45;5.80;;;2.58;;
38529;SDS011;24301;54.332;48.386;2023-04-25T03:03:15;3.63;;;2.47;;
38529;SDS011;24301;54.332;48.386;2023-04-25T03:05:43;4.28;;;2.38;;
38529;SDS011;24301;54.332;48.386;2023-04-25T03:08:11;3.75;;;2.35;;
38529;SDS011;24301;54.332;48.386;2023-04-25T03:10:38;5.20;;;1.95;;
38529;SDS011;24301;54.332;48.386;2023-04-25T03:16:41;8.00;;;2.63;;
38529;SDS011;24301;54.332;48.386;2023-04-25T03:19:28;8.27;;;2.58;;
38529;SDS011;24301;54.332;48.386;2023-04-25T03:25:18;5.53;;;2.22;;
38529;SDS011;24301;54.332;48.386;2023-04-25T03:27:45;7.78;;;2.58;;
38529;SDS011;24301;54.332;48.386;2023-04-25T03:30:17;5.10;;;2.55;;
38529;SDS011;24301;54.332;48.386;2023-04-25T03:32:46;5.07;;;2.70;;
38529;SDS011;24301;54.332;48.386;2023-04-25T03:35:42;5.47;;;2.42;;
38529;SDS011;24301;54.332;48.386;2023-04-25T03:38:26;4.75;;;2.17;;
38529;SDS011;24301;54.332;48.386;2023-04-25T03:40:52;6.13;;;2.35;;
38529;SDS011;24301;54.332;48.386;2023-04-25T03:43:37;7.68;;;2.58;;
38529;SDS011;24301;54.332;48.386;2023-04-25T03:49:09;8.45;;;2.63;;
38529;SDS011;24301;54.332;48.386;2023-04-25T03:52:12;4.97;;;2.50;;
38529;SDS011;24301;54.332;48.386;2023-04-25T03:55:05;7.43;;;2.83;;
38529;SDS011;24301;54.332;48.386;2023-04-25T03:57:32;10.07;;;3.97;;
38529;SDS011;24301;54.332;48.386;2023-04-25T04:00:22;9.45;;;3.30;;
38529;SDS011;24301;54.332;48.386;2023-04-25T04:06:05;10.35;;;3.70;;
38529;SDS011;24301;54.332;48.386;2023-04-25T04:09:21;10.70;;;5.05;;
38529;SDS011;24301;54.332;48.386;2023-04-25T04:12:10;13.50;;;6.43;;
38529;SDS011;24301;54.332;48.386;2023-04-25T04:14:42;14.20;;;6.38;;
38529;SDS011;24301;54.332;48.386;2023-04-25T04:17:15;19.08;;;5.78;;
38529;SDS011;24301;54.332;48.386;2023-04-25T04:19:41;15.30;;;5.80;;
38529;SDS011;24301;54.332;48.386;2023-04-25T04:25:47;9.55;;;3.97;;
38529;SDS011;24301;54.332;48.386;2023-04-25T04:28:57;7.43;;;2.75;;
38529;SDS011;24301;54.332;48.386;2023-04-25T04:32:00;6.05;;;2.42;;
38529;SDS011;24301;54.332;48.386;2023-04-25T04:34:27;7.25;;;2.80;;
38529;SDS011;24301;54.332;48.386;2023-04-25T04:36:53;6.03;;;2.42;;
38529;SDS011;24301;54.332;48.386;2023-04-25T04:39:20;9.38;;;3.42;;
38529;SDS011;24301;54.332;48.386;2023-04-25T04:44:59;4.33;;;2.30;;
38529;SDS011;24301;54.332;48.386;2023-04-25T04:47:45;7.25;;;3.22;;
38529;SDS011;24301;54.332;48.386;2023-04-25T04:50:23;8.77;;;2.60;;
38529;SDS011;24301;54.332;48.386;2023-04-25T04:53:08;6.28;;;2.47;;
38529;SDS011;24301;54.332;48.386;2023-04-25T04:55:42;6.72;;;2.65;;
38529;SDS011;24301;54.332;48.386;2023-04-25T04:58:27;9.32;;;2.70;;
38529;SDS011;24301;54.332;48.386;2023-04-25T05:01:11;4.18;;;2.55;;
38529;SDS011;24301;54.332;48.386;2023-04-25T05:03:55;7.35;;;2.65;;
38529;SDS011;24301;54.332;48.386;2023-04-25T05:06:44;7.15;;;2.72;;
38529;SDS011;24301;54.332;48.386;2023-04-25T05:09:25;7.05;;;3.22;;
38529;SDS011;24301;54.332;48.386;2023-04-25T05:12:21;8.65;;;3.17;;
38529;SDS011;24301;54.332;48.386;2023-04-25T05:15:05;8.07;;;3.55;;
38529;SDS011;24301;54.332;48.386;2023-04-25T05:17:33;10.55;;;3.60;;
38529;SDS011;24301;54.332;48.386;2023-04-25T05:19:59;6.57;;;2.78;;
38529;SDS011;24301;54.332;48.386;2023-04-25T05:22:51;7.68;;;3.47;;
38529;SDS011;24301;54.332;48.386;2023-04-25T05:25:22;9.90;;;3.30;;
38529;SDS011;24301;54.332;48.386;2023-04-25T05:27:55;13.40;;;3.20;;
38529;SDS011;24301;54.332;48.386;2023-04-25T05:30:42;6.93;;;3.13;;
38529;SDS011;24301;54.332;48.386;2023-04-25T05:33:17;12.07;;;2.63;;
38529;SDS011;24301;54.332;48.386;2023-04-25T05:35:45;6.95;;;3.13;;
38529;SDS011;24301;54.332;48.386;2023-04-25T05:38:11;8.15;;;3.00;;
38529;SDS011;24301;54.332;48.386;2023-04-25T05:40:57;9.85;;;3.63;;
38529;SDS011;24301;54.332;48.386;2023-04-25T05:43:46;6.80;;;2.80;;
38529;SDS011;24301;54.332;48.386;2023-04-25T05:46:39;9.10;;;2.88;;
38529;SDS011;24301;54.332;48.386;2023-04-25T05:49:55;4.88;;;2.67;;
38529;SDS011;24301;54.332;48.386;2023-04-25T05:52:54;4.78;;;2.85;;
38529;SDS011;24301;54.332;48.386;2023-04-25T05:55:28;5.25;;;2.78;;
38529;SDS011;24301;54.332;48.386;2023-04-25T05:57:56;6.18;;;2.65;;
38529;SDS011;24301;54.332;48.386;2023-04-25T06:00:22;7.13;;;3.17;;
38529;SDS011;24301;54.332;48.386;2023-04-25T06:02:49;8.10;;;2.83;;
38529;SDS011;24301;54.332;48.386;2023-04-25T06:05:15;8.05;;;2.60;;
38529;SDS011;24301;54.332;48.386;2023-04-25T06:07:41;12.57;;;3.33;;
38529;SDS011;24301;54.332;48.386;2023-04-25T06:10:07;5.43;;;3.63;;
38529;SDS011;24301;54.332;48.386;2023-04-25T06:12:33;5.93;;;2.45;;
38529;SDS011;24301;54.332;48.386;2023-04-25T06:15:00;6.38;;;2.85;;
38529;SDS011;24301;54.332;48.386;2023-04-25T06:17:26;6.93;;;3.10;;
38529;SDS011;24301;54.332;48.386;2023-04-25T06:19:52;3.67;;;2.45;;
38529;SDS011;24301;54.332;48.386;2023-04-25T06:22:18;5.25;;;2.53;;
38529;SDS011;24301;54.332;48.386;2023-04-25T06:24:44;9.30;;;3.03;;
38529;SDS011;24301;54.332;48.386;2023-04-25T06:27:11;5.78;;;2.60;;
38529;SDS011;24301;54.332;48.386;2023-04-25T06:29:38;7.82;;;2.72;;
38529;SDS011;24301;54.332;48.386;2023-04-25T06:32:04;8.63;;;3.72;;
38529;SDS011;24301;54.332;48.386;2023-04-25T06:34:30;4.97;;;2.75;;
38529;SDS011;24301;54.332;48.386;2023-04-25T06:36:56;6.78;;;2.92;;
38529;SDS011;24301;54.332;48.386;2023-04-25T06:39:22;5.65;;;2.65;;
38529;SDS011;24301;54.332;48.386;2023-04-25T06:41:51;6.38;;;2.88;;
38529;SDS011;24301;54.332;48.386;2023-04-25T06:44:37;7.70;;;3.03;;
38529;SDS011;24301;54.332;48.386;2023-04-25T06:47:06;6.38;;;2.83;;
38529;SDS011;24301;54.332;48.386;2023-04-25T06:49:32;4.65;;;2.60;;
38529;SDS011;24301;54.332;48.386;2023-04-25T06:51:58;10.23;;;3.40;;
38529;SDS011;24301;54.332;48.386;2023-04-25T06:54:24;9.10;;;3.22;;
38529;SDS011;24301;54.332;48.386;2023-04-25T06:57:00;5.38;;;2.90;;
38529;SDS011;24301;54.332;48.386;2023-04-25T06:59:31;8.65;;;3.28;;
38529;SDS011;24301;54.332;48.386;2023-04-25T07:01:58;6.63;;;2.95;;
38529;SDS011;24301;54.332;48.386;2023-04-25T07:04:25;9.25;;;3.15;;
38529;SDS011;24301;54.332;48.386;2023-04-25T07:06:54;6.07;;;2.80;;
38529;SDS011;24301;54.332;48.386;2023-04-25T07:09:28;6.35;;;2.92;;
38529;SDS011;24301;54.332;48.386;2023-04-25T07:11:55;9.57;;;3.47;;
38529;SDS011;24301;54.332;48.386;2023-04-25T07:14:22;8.75;;;2.83;;
38529;SDS011;24301;54.332;48.386;2023-04-25T07:16:48;4.85;;;2.75;;
38529;SDS011;24301;54.332;48.386;2023-04-25T07:19:14;5.63;;;3.00;;
38529;SDS011;24301;54.332;48.386;2023-04-25T07:21:40;8.95;;;3.30;;
38529;SDS011;24301;54.332;48.386;2023-04-25T07:24:07;6.60;;;3.40;;
38529;SDS011;24301;54.332;48.386;2023-04-25T07:26:37;7.53;;;2.50;;
38529;SDS011;24301;54.332;48.386;2023-04-25T07:29:16;7.85;;;3.25;;
38529;SDS011;24301;54.332;48.386;2023-04-25T07:31:42;6.43;;;3.15;;
38529;SDS011;24301;54.332;48.386;2023-04-25T07:34:08;6.43;;;2.47;;
38529;SDS011;24301;54.332;48.386;2023-04-25T07:36:47;6.10;;;3.22;;
38529;SDS011;24301;54.332;48.386;2023-04-25T07:45:15;7.45;;;4.60;;
38529;SDS011;24301;54.332;48.386;2023-04-25T07:47:44;7.57;;;4.15;;
38529;SDS011;24301;54.332;48.386;2023-04-25T07:50:39;4.70;;;3.05;;
38529;SDS011;24301;54.332;48.386;2023-04-25T07:56:23;9.30;;;3.35;;
38529;SDS011;24301;54.332;48.386;2023-04-25T07:59:17;6.95;;;2.63;;
38529;SDS011;24301;54.332;48.386;2023-04-25T08:01:47;5.40;;;2.80;;
38529;SDS011;24301;54.332;48.386;2023-04-25T08:04:26;7.35;;;3.03;;
38529;SDS011;24301;54.332;48.386;2023-04-25T08:06:59;6.90;;;3.00;;
38529;SDS011;24301;54.332;48.386;2023-04-25T08:09:48;9.43;;;3.35;;
38529;SDS011;24301;54.332;48.386;2023-04-25T08:14:50;6.63;;;3.13;;
38529;SDS011;24301;54.332;48.386;2023-04-25T08:17:16;9.23;;;2.67;;
38529;SDS011;24301;54.332;48.386;2023-04-25T08:19:44;5.70;;;2.72;;
38529;SDS011;24301;54.332;48.386;2023-04-25T08:22:18;6.32;;;3.15;;
38529;SDS011;24301;54.332;48.386;2023-04-25T08:24:52;5.97;;;3.30;;
38529;SDS011;24301;54.332;48.386;2023-04-25T08:27:19;8.32;;;3.63;;
38529;SDS011;24301;54.332;48.386;2023-04-25T08:29:46;11.15;;;3.60;;
38529;SDS011;24301;54.332;48.386;2023-04-25T08:32:13;6.05;;;4.30;;
38529;SDS011;24301;54.332;48.386;2023-04-25T08:34:49;7.65;;;3.50;;
38529;SDS011;24301;54.332;48.386;2023-04-25T08:37:16;5.47;;;3.50;;
38529;SDS011;24301;54.332;48.386;2023-04-25T08:39:54;7.22;;;2.92;;
38529;SDS011;24301;54.332;48.386;2023-04-25T08:46:03;3.83;;;2.83;;
38529;SDS011;24301;54.332;48.386;2023-04-25T08:49:07;7.90;;;3.95;;
38529;SDS011;24301;54.332;48.386;2023-04-25T08:51:36;5.90;;;3.47;;
38529;SDS011;24301;54.332;48.386;2023-04-25T08:54:18;10.03;;;3.20;;
38529;SDS011;24301;54.332;48.386;2023-04-25T08:57:20;5.80;;;3.67;;
38529;SDS011;24301;54.332;48.386;2023-04-25T08:59:55;10.00;;;4.65;;
38529;SDS011;24301;54.332;48.386;2023-04-25T09:02:42;4.93;;;3.05;;
38529;SDS011;24301;54.332;48.386;2023-04-25T09:05:18;5.88;;;3.65;;
38529;SDS011;24301;54.332;48.386;2023-04-25T09:07:53;6.55;;;3.20;;
38529;SDS011;24301;54.332;48.386;2023-04-25T09:11:04;8.98;;;3.38;;
38529;SDS011;24301;54.332;48.386;2023-04-25T09:13:31;4.65;;;2.90;;
38529;SDS011;24301;54.332;48.386;2023-04-25T09:20:04;9.95;;;4.03;;
38529;SDS011;24301;54.332;48.386;2023-04-25T09:22:41;7.63;;;3.05;;
38529;SDS011;24301;54.332;48.386;2023-04-25T09:25:10;7.45;;;3.30;;
38529;SDS011;24301;54.332;48.386;2023-04-25T09:27:55;4.72;;;3.20;;
38529;SDS011;24301;54.332;48.386;2023-04-25T09:30:39;6.32;;;3.22;;
38529;SDS011;24301;54.332;48.386;2023-04-25T09:33:11;8.30;;;3.60;;
38529;SDS011;24301;54.332;48.386;2023-04-25T09:36:17;7.88;;;3.78;;
38529;SDS011;24301;54.332;48.386;2023-04-25T09:39:04;8.07;;;3.45;;
38529;SDS011;24301;54.332;48.386;2023-04-25T09:42:02;4.03;;;3.35;;
38529;SDS011;24301;54.332;48.386;2023-04-25T09:44:30;8.13;;;3.30;;
38529;SDS011;24301;54.332;48.386;2023-04-25T09:46:57;10.27;;;3.95;;
38529;SDS011;24301;54.332;48.386;2023-04-25T09:49:27;8.38;;;3.45;;
38529;SDS011;24301;54.332;48.386;2023-04-25T09:56:17;8.60;;;3.75;;
38529;SDS011;24301;54.332;48.386;2023-04-25T09:58:47;6.05;;;3.97;;
38529;SDS011;24301;54.332;48.386;2023-04-25T10:01:16;7.18;;;3.75;;
38529;SDS011;24301;54.332;48.386;2023-04-25T10:04:02;5.53;;;3.38;;
38529;SDS011;24301;54.332;48.386;2023-04-25T10:06:52;11.15;;;3.80;;
38529;SDS011;24301;54.332;48.386;2023-04-25T10:09:20;8.20;;;3.55;;
38529;SDS011;24301;54.332;48.386;2023-04-25T10:11:50;8.45;;;4.32;;
38529;SDS011;24301;54.332;48.386;2023-04-25T10:14:18;7.30;;;3.88;;
38529;SDS011;24301;54.332;48.386;2023-04-25T10:16:45;8.00;;;3.70;;
38529;SDS011;24301;54.332;48.386;2023-04-25T10:19:12;9.15;;;4.25;;
38529;SDS011;24301;54.332;48.386;2023-04-25T10:21:50;7.93;;;3.45;;
38529;SDS011;24301;54.332;48.386;2023-04-25T10:24:19;6.47;;;4.10;;
38529;SDS011;24301;54.332;48.386;2023-04-25T10:26:46;5.55;;;4.15;;
38529;SDS011;24301;54.332;48.386;2023-04-25T10:29:14;9.18;;;3.90;;
38529;SDS011;24301;54.332;48.386;2023-04-25T10:31:48;8.05;;;4.63;;
38529;SDS011;24301;54.332;48.386;2023-04-25T10:34:14;8.55;;;4.47;;
38529;SDS011;24301;54.332;48.386;2023-04-25T10:36:42;7.45;;;3.92;;
38529;SDS011;24301;54.332;48.386;2023-04-25T10:39:08;9.50;;;4.43;;
38529;SDS011;24301;54.332;48.386;2023-04-25T10:41:47;7.57;;;4.20;;
38529;SDS011;24301;54.332;48.386;2023-04-25T10:44:17;8.70;;;4.25;;
38529;SDS011;24301;54.332;48.386;2023-04-25T10:46:44;7.07;;;4.47;;
38529;SDS011;24301;54.332;48.386;2023-04-25T10:49:11;8.82;;;4.30;;
38529;SDS011;24301;54.332;48.386;2023-04-25T10:54:46;7.13;;;4.60;;
38529;SDS011;24301;54.332;48.386;2023-04-25T10:59:59;6.93;;;4.07;;
38529;SDS011;24301;54.332;48.386;2023-04-25T11:02:26;9.25;;;3.90;;
38529;SDS011;24301;54.332;48.386;2023-04-25T11:04:56;8.68;;;4.57;;
38529;SDS011;24301;54.332;48.386;2023-04-25T11:07:37;7.00;;;3.97;;
38529;SDS011;24301;54.332;48.386;2023-04-25T11:10:09;9.43;;;4.45;;
38529;SDS011;24301;54.332;48.386;2023-04-25T11:12:35;9.88;;;3.85;;
38529;SDS011;24301;54.332;48.386;2023-04-25T11:15:05;13.30;;;4.55;;
38529;SDS011;24301;54.332;48.386;2023-04-25T11:17:33;8.90;;;4.50;;
38529;SDS011;24301;54.332;48.386;2023-04-25T11:19:59;5.28;;;3.88;;
38529;SDS011;24301;54.332;48.386;2023-04-25T11:22:28;10.30;;;5.18;;
38529;SDS011;24301;54.332;48.386;2023-04-25T11:24:55;9.50;;;4.03;;
38529;SDS011;24301;54.332;48.386;2023-04-25T11:27:21;9.98;;;5.13;;
38529;SDS011;24301;54.332;48.386;2023-04-25T11:29:47;7.43;;;4.72;;
38529;SDS011;24301;54.332;48.386;2023-04-25T11:32:14;8.05;;;4.95;;
38529;SDS011;24301;54.332;48.386;2023-04-25T11:34:42;8.02;;;4.13;;
38529;SDS011;24301;54.332;48.386;2023-04-25T11:37:09;9.45;;;3.90;;
38529;SDS011;24301;54.332;48.386;2023-04-25T11:39:37;7.28;;;4.18;;
38529;SDS011;24301;54.332;48.386;2023-04-25T11:42:04;8.75;;;4.70;;
38529;SDS011;24301;54.332;48.386;2023-04-25T11:44:31;7.47;;;4.97;;
38529;SDS011;24301;54.332;48.386;2023-04-25T11:46:57;7.53;;;4.82;;
38529;SDS011;24301;54.332;48.386;2023-04-25T11:49:23;7.45;;;4.18;;
38529;SDS011;24301;54.332;48.386;2023-04-25T11:51:50;7.53;;;4.35;;
38529;SDS011;24301;54.332;48.386;2023-04-25T11:54:16;5.85;;;4.13;;
38529;SDS011;24301;54.332;48.386;2023-04-25T11:56:45;8.70;;;4.25;;
38529;SDS011;24301;54.332;48.386;2023-04-25T11:59:11;10.05;;;5.18;;
38529;SDS011;24301;54.332;48.386;2023-04-25T12:01:39;7.60;;;4.65;;
38529;SDS011;24301;54.332;48.386;2023-04-25T12:04:15;9.52;;;5.05;;
38529;SDS011;24301;54.332;48.386;2023-04-25T12:06:43;10.38;;;5.15;;
38529;SDS011;24301;54.332;48.386;2023-04-25T12:09:13;10.90;;;6.43;;
38529;SDS011;24301;54.332;48.386;2023-04-25T12:14:21;7.47;;;5.65;;
38529;SDS011;24301;54.332;48.386;2023-04-25T12:16:49;9.70;;;5.88;;
38529;SDS011;24301;54.332;48.386;2023-04-25T12:19:17;9.85;;;5.57;;
38529;SDS011;24301;54.332;48.386;2023-04-25T12:21:44;8.20;;;5.85;;
38529;SDS011;24301;54.332;48.386;2023-04-25T12:26:47;9.60;;;6.32;;
38529;SDS011;24301;54.332;48.386;2023-04-25T12:29:23;7.25;;;6.20;;
38529;SDS011;24301;54.332;48.386;2023-04-25T12:31:50;6.88;;;5.88;;
38529;SDS011;24301;54.332;48.386;2023-04-25T12:34:18;9.57;;;5.93;;
38529;SDS011;24301;54.332;48.386;2023-04-25T12:36:45;10.75;;;6.45;;
38529;SDS011;24301;54.332;48.386;2023-04-25T12:39:17;14.30;;;7.50;;
38529;SDS011;24301;54.332;48.386;2023-04-25T12:41:45;8.93;;;7.68;;
38529;SDS011;24301;54.332;48.386;2023-04-25T12:44:12;8.45;;;7.30;;
38529;SDS011;24301;54.332;48.386;2023-04-25T12:46:38;11.15;;;7.68;;
38529;SDS011;24301;54.332;48.386;2023-04-25T12:49:06;10.98;;;7.60;;
38529;SDS011;24301;54.332;48.386;2023-04-25T12:51:35;11.38;;;7.20;;
38529;SDS011;24301;54.332;48.386;2023-04-25T12:54:02;11.80;;;7.57;;
38529;SDS011;24301;54.332;48.386;2023-04-25T12:56:28;10.18;;;8.65;;
38529;SDS011;24301;54.332;48.386;2023-04-25T12:58:55;9.52;;;7.15;;
38529;SDS011;24301;54.332;48.386;2023-04-25T13:01:22;9.95;;;7.35;;
38529;SDS011;24301;54.332;48.386;2023-04-25T13:03:49;8.32;;;7.00;;
38529;SDS011;24301;54.332;48.386;2023-04-25T13:06:15;11.23;;;7.22;;
38529;SDS011;24301;54.332;48.386;2023-04-25T13:08:42;11.30;;;7.97;;
38529;SDS011;24301;54.332;48.386;2023-04-25T13:11:09;11.65;;;7.70;;
38529;SDS011;24301;54.332;48.386;2023-04-25T13:13:35;14.25;;;8.10;;
38529;SDS011;24301;54.332;48.386;2023-04-25T13:16:02;11.80;;;8.38;;
38529;SDS011;24301;54.332;48.386;2023-04-25T13:18:29;9.70;;;7.25;;
38529;SDS011;24301;54.332;48.386;2023-04-25T13:20:55;9.93;;;6.88;;
38529;SDS011;24301;54.332;48.386;2023-04-25T13:23:22;9.85;;;7.13;;
38529;SDS011;24301;54.332;48.386;2023-04-25T13:25:48;13.27;;;7.72;;
38529;SDS011;24301;54.332;48.386;2023-04-25T13:28:14;10.93;;;8.20;;
38529;SDS011;24301;54.332;48.386;2023-04-25T13:30:41;10.82;;;7.82;;
38529;SDS011;24301;54.332;48.386;2023-04-25T13:33:07;10.38;;;7.50;;
38529;SDS011;24301;54.332;48.386;2023-04-25T13:35:34;11.93;;;7.50;;
38529;SDS011;24301;54.332;48.386;2023-04-25T13:38:00;10.35;;;7.57;;
38529;SDS011;24301;54.332;48.386;2023-04-25T13:40:26;13.32;;;7.93;;
38529;SDS011;24301;54.332;48.386;2023-04-25T13:42:53;10.45;;;7.53;;
38529;SDS011;24301;54.332;48.386;2023-04-25T13:45:19;11.23;;;7.35;;
38529;SDS011;24301;54.332;48.386;2023-04-25T13:47:46;11.13;;;7.07;;
38529;SDS011;24301;54.332;48.386;2023-04-25T13:50:12;9.82;;;7.35;;
38529;SDS011;24301;54.332;48.386;2023-04-25T13:52:39;14.25;;;7.40;;
38529;SDS011;24301;54.332;48.386;2023-04-25T13:55:06;11.70;;;7.68;;
38529;SDS011;24301;54.332;48.386;2023-04-25T13:57:34;14.65;;;7.30;;
38529;SDS011;24301;54.332;48.386;2023-04-25T14:00:00;9.68;;;6.85;;
38529;SDS011;24301;54.332;48.386;2023-04-25T14:02:32;12.07;;;7.75;;
38529;SDS011;24301;54.332;48.386;2023-04-25T14:04:58;15.55;;;7.65;;
38529;SDS011;24301;54.332;48.386;2023-04-25T14:07:23;10.15;;;7.60;;
38529;SDS011;24301;54.332;48.386;2023-04-25T14:09:51;10.40;;;7.93;;
38529;SDS011;24301;54.332;48.386;2023-04-25T14:12:17;9.27;;;7.85;;
38529;SDS011;24301;54.332;48.386;2023-04-25T14:14:43;9.30;;;7.65;;
38529;SDS011;24301;54.332;48.386;2023-04-25T14:17:09;8.40;;;7.47;;
38529;SDS011;24301;54.332;48.386;2023-04-25T14:19:35;8.77;;;7.88;;
38529;SDS011;24301;54.332;48.386;2023-04-25T14:22:02;14.77;;;9.88;;
38529;SDS011;24301;54.332;48.386;2023-04-25T14:24:28;9.70;;;8.32;;
38529;SDS011;24301;54.332;48.386;2023-04-25T14:26:54;12.07;;;8.93;;
38529;SDS011;24301;54.332;48.386;2023-04-25T14:29:21;10.52;;;8.25;;
38529;SDS011;24301;54.332;48.386;2023-04-25T14:31:47;13.70;;;9.23;;
38529;SDS011;24301;54.332;48.386;2023-04-25T14:34:12;13.73;;;10.20;;
38529;SDS011;24301;54.332;48.386;2023-04-25T14:36:38;12.32;;;9.32;;
38529;SDS011;24301;54.332;48.386;2023-04-25T14:39:04;12.15;;;8.20;;
38529;SDS011;24301;54.332;48.386;2023-04-25T14:41:30;15.50;;;8.65;;
38529;SDS011;24301;54.332;48.386;2023-04-25T14:43:56;11.00;;;9.80;;
38529;SDS011;24301;54.332;48.386;2023-04-25T14:46:22;13.43;;;9.80;;
38529;SDS011;24301;54.332;48.386;2023-04-25T14:48:49;11.38;;;9.27;;
38529;SDS011;24301;54.332;48.386;2023-04-25T14:51:15;11.27;;;9.88;;
38529;SDS011;24301;54.332;48.386;2023-04-25T14:53:41;13.35;;;9.02;;
38529;SDS011;24301;54.332;48.386;2023-04-25T14:56:07;10.75;;;8.35;;
38529;SDS011;24301;54.332;48.386;2023-04-25T14:58:34;12.75;;;8.40;;
38529;SDS011;24301;54.332;48.386;2023-04-25T15:01:00;9.38;;;8.23;;
38529;SDS011;24301;54.332;48.386;2023-04-25T15:03:27;8.93;;;7.10;;
38529;SDS011;24301;54.332;48.386;2023-04-25T15:05:54;9.20;;;6.68;;
38529;SDS011;24301;54.332;48.386;2023-04-25T15:08:21;10.98;;;8.77;;
38529;SDS011;24301;54.332;48.386;2023-04-25T15:10:47;12.45;;;8.60;;
38529;SDS011;24301;54.332;48.386;2023-04-25T15:13:13;9.88;;;8.10;;
38529;SDS011;24301;54.332;48.386;2023-04-25T15:15:40;10.38;;;7.13;;
38529;SDS011;24301;54.332;48.386;2023-04-25T15:18:06;9.32;;;7.82;;
38529;SDS011;24301;54.332;48.386;2023-04-25T15:20:32;10.00;;;7.30;;
38529;SDS011;24301;54.332;48.386;2023-04-25T15:22:58;10.27;;;7.55;;
38529;SDS011;24301;54.332;48.386;2023-04-25T15:25:24;14.77;;;12.32;;
38529;SDS011;24301;54.332;48.386;2023-04-25T15:27:50;9.57;;;7.25;;
38529;SDS011;24301;54.332;48.386;2023-04-25T15:30:17;8.48;;;6.53;;
38529;SDS011;24301;54.332;48.386;2023-04-25T15:32:46;9.75;;;7.65;;
38529;SDS011;24301;54.332;48.386;2023-04-25T15:35:13;10.40;;;7.22;;
38529;SDS011;24301;54.332;48.386;2023-04-25T15:37:40;9.50;;;6.78;;
38529;SDS011;24301;54.332;48.386;2023-04-25T15:40:10;14.63;;;8.38;;
38529;SDS011;24301;54.332;48.386;2023-04-25T15:42:39;10.90;;;6.60;;
38529;SDS011;24301;54.332;48.386;2023-04-25T15:45:13;8.20;;;6.18;;
38529;SDS011;24301;54.332;48.386;2023-04-25T15:47:40;9.32;;;6.22;;
38529;SDS011;24301;54.332;48.386;2023-04-25T15:50:07;7.88;;;5.78;;
38529;SDS011;24301;54.332;48.386;2023-04-25T15:52:34;10.23;;;6.22;;
38529;SDS011;24301;54.332;48.386;2023-04-25T15:55:01;9.00;;;6.07;;
38529;SDS011;24301;54.332;48.386;2023-04-25T15:57:32;10.55;;;7.28;;
38529;SDS011;24301;54.332;48.386;2023-04-25T16:00:00;9.27;;;6.55;;
38529;SDS011;24301;54.332;48.386;2023-04-25T16:02:38;8.77;;;6.03;;
38529;SDS011;24301;54.332;48.386;2023-04-25T16:05:05;10.60;;;6.90;;
38529;SDS011;24301;54.332;48.386;2023-04-25T16:07:32;11.93;;;7.60;;
38529;SDS011;24301;54.332;48.386;2023-04-25T16:09:58;11.23;;;7.18;;
38529;SDS011;24301;54.332;48.386;2023-04-25T16:12:24;9.90;;;7.70;;
38529;SDS011;24301;54.332;48.386;2023-04-25T16:14:51;8.30;;;6.30;;
38529;SDS011;24301;54.332;48.386;2023-04-25T16:17:17;10.85;;;6.97;;